QLK359 YBBN-NWWW
Flight info
| Callsign | QLK359 |
|---|---|
| Flight time | 1h 41m |
| Altitude | 35000 |
| Route | GUMKI B578 TEBUR DCT NISAS NISAS2A |
| Aircraft | A320/M-SDE3FGHIRWYZ/LB1 |
Departure
| Time | 2026-05-07 18:04 |
|---|---|
| Airport | Brisbane International Airport (YBBN) |
Arrival
| Time | 2026-05-07 19:45 |
|---|---|
| Airport | La Tontouta International Airport (NWWW) |
| Time | Latitude | Longitude | Altitude | Speed | Heading |
|---|---|---|---|---|---|
| 2026-05-07 17:37 | -27.39977 | 153.11391 | 120 ft | 0 kts | 295° |
| 2026-05-07 17:51 | -27.39981 | 153.11400 | 17 ft | 4 kts | 298° |
| 2026-05-07 17:51 | -27.39995 | 153.11425 | 19 ft | 4 kts | 315° |
| 2026-05-07 17:51 | -27.40016 | 153.11442 | 19 ft | 2 kts | 338° |
| 2026-05-07 17:52 | -27.40018 | 153.11443 | 17 ft | 0 kts | 338° |
| 2026-05-07 17:54 | -27.40017 | 153.11443 | 17 ft | 1 kts | 339° |
| 2026-05-07 17:55 | -27.39989 | 153.11447 | 17 ft | 8 kts | 20° |
| 2026-05-07 17:55 | -27.39938 | 153.11510 | 17 ft | 12 kts | 47° |
| 2026-05-07 17:55 | -27.39885 | 153.11571 | 18 ft | 11 kts | 39° |
| 2026-05-07 17:55 | -27.39867 | 153.11652 | 17 ft | 12 kts | 96° |
| 2026-05-07 17:56 | -27.39817 | 153.11722 | 17 ft | 13 kts | 27° |
| 2026-05-07 17:56 | -27.39728 | 153.11772 | 17 ft | 15 kts | 26° |
| 2026-05-07 17:56 | -27.39630 | 153.11828 | 17 ft | 17 kts | 27° |
| 2026-05-07 17:56 | -27.39521 | 153.11891 | 18 ft | 18 kts | 27° |
| 2026-05-07 17:57 | -27.39400 | 153.11959 | 17 ft | 20 kts | 27° |
| 2026-05-07 17:57 | -27.39314 | 153.12008 | 18 ft | 22 kts | 27° |
| 2026-05-07 17:57 | -27.39160 | 153.12097 | 17 ft | 20 kts | 27° |
| 2026-05-07 17:57 | -27.39033 | 153.12170 | 18 ft | 22 kts | 27° |
| 2026-05-07 17:58 | -27.38900 | 153.12245 | 18 ft | 20 kts | 27° |
| 2026-05-07 17:58 | -27.38770 | 153.12320 | 17 ft | 22 kts | 27° |
| 2026-05-07 17:58 | -27.38636 | 153.12396 | 17 ft | 19 kts | 26° |
| 2026-05-07 17:58 | -27.38510 | 153.12468 | 17 ft | 21 kts | 27° |
| 2026-05-07 17:59 | -27.38378 | 153.12544 | 17 ft | 22 kts | 27° |
| 2026-05-07 17:59 | -27.38252 | 153.12615 | 18 ft | 20 kts | 27° |
| 2026-05-07 17:59 | -27.38122 | 153.12690 | 18 ft | 17 kts | 27° |
| 2026-05-07 17:59 | -27.38011 | 153.12754 | 17 ft | 17 kts | 27° |
| 2026-05-07 18:00 | -27.37898 | 153.12818 | 17 ft | 19 kts | 27° |
| 2026-05-07 18:00 | -27.37768 | 153.12892 | 17 ft | 22 kts | 27° |
| 2026-05-07 18:00 | -27.37627 | 153.12974 | 17 ft | 23 kts | 26° |
| 2026-05-07 18:00 | -27.37483 | 153.13055 | 17 ft | 22 kts | 26° |
| 2026-05-07 18:01 | -27.37354 | 153.13128 | 17 ft | 21 kts | 27° |
| 2026-05-07 18:01 | -27.37269 | 153.13191 | 19 ft | 11 kts | 62° |
| 2026-05-07 18:01 | -27.37291 | 153.13274 | 18 ft | 12 kts | 116° |
| 2026-05-07 18:01 | -27.37324 | 153.13349 | 18 ft | 5 kts | 117° |
| 2026-05-07 18:02 | -27.37356 | 153.13395 | 16 ft | 9 kts | 137° |
| 2026-05-07 18:02 | -27.37433 | 153.13435 | 19 ft | 14 kts | 174° |
| 2026-05-07 18:02 | -27.37501 | 153.13411 | 19 ft | 0 kts | 207° |
| 2026-05-07 18:03 | -27.37672 | 153.13313 | 19 ft | 68 kts | 207° |
| 2026-05-07 18:04 | -27.38326 | 153.12939 | 21 ft | 139 kts | 207° |
| 2026-05-07 18:04 | -27.39345 | 153.12358 | 222 ft | 176 kts | 207° |
| 2026-05-07 18:04 | -27.40442 | 153.11731 | 1024 ft | 180 kts | 208° |
| 2026-05-07 18:04 | -27.41576 | 153.11082 | 1884 ft | 183 kts | 208° |
| 2026-05-07 18:05 | -27.42785 | 153.10704 | 2662 ft | 185 kts | 174° |
| 2026-05-07 18:05 | -27.43994 | 153.11199 | 3177 ft | 187 kts | 154° |
| 2026-05-07 18:05 | -27.45182 | 153.11949 | 3454 ft | 207 kts | 151° |
| 2026-05-07 18:05 | -27.46495 | 153.12818 | 3650 ft | 231 kts | 151° |
| 2026-05-07 18:06 | -27.47912 | 153.13747 | 4213 ft | 239 kts | 152° |
| 2026-05-07 18:06 | -27.49429 | 153.14538 | 4936 ft | 241 kts | 169° |
| 2026-05-07 18:06 | -27.51121 | 153.14626 | 5386 ft | 255 kts | 192° |
| 2026-05-07 18:06 | -27.52918 | 153.14192 | 5864 ft | 270 kts | 195° |
| 2026-05-07 18:07 | -27.54799 | 153.13932 | 6588 ft | 279 kts | 176° |
| 2026-05-07 18:07 | -27.56664 | 153.14596 | 7286 ft | 288 kts | 149° |
| 2026-05-07 18:07 | -27.58105 | 153.16133 | 8004 ft | 294 kts | 123° |
| 2026-05-07 18:07 | -27.58853 | 153.18318 | 8741 ft | 299 kts | 97° |
| 2026-05-07 18:08 | -27.58712 | 153.20615 | 9448 ft | 302 kts | 71° |
| 2026-05-07 18:08 | -27.57812 | 153.22744 | 10138 ft | 305 kts | 58° |
| 2026-05-07 18:08 | -27.56655 | 153.24853 | 10321 ft | 327 kts | 54° |
| 2026-05-07 18:08 | -27.55336 | 153.27045 | 10446 ft | 350 kts | 53° |
| 2026-05-07 18:09 | -27.53883 | 153.29360 | 10569 ft | 371 kts | 52° |
| 2026-05-07 18:09 | -27.52349 | 153.31776 | 10714 ft | 389 kts | 52° |
| 2026-05-07 18:09 | -27.50760 | 153.34292 | 11145 ft | 397 kts | 52° |
| 2026-05-07 18:09 | -27.49159 | 153.36848 | 11700 ft | 401 kts | 52° |
| 2026-05-07 18:10 | -27.47545 | 153.39443 | 12276 ft | 405 kts | 52° |
| 2026-05-07 18:10 | -27.45927 | 153.42059 | 12855 ft | 409 kts | 52° |
| 2026-05-07 18:10 | -27.44299 | 153.44698 | 13442 ft | 412 kts | 52° |
| 2026-05-07 18:10 | -27.42659 | 153.47360 | 14028 ft | 415 kts | 52° |
| 2026-05-07 18:11 | -27.41007 | 153.50037 | 14537 ft | 418 kts | 52° |
| 2026-05-07 18:11 | -27.39904 | 153.51823 | 14865 ft | 421 kts | 51° |
| 2026-05-07 18:11 | -27.37647 | 153.55466 | 15509 ft | 427 kts | 51° |
| 2026-05-07 18:11 | -27.35938 | 153.58219 | 15987 ft | 431 kts | 51° |
| 2026-05-07 18:12 | -27.34208 | 153.61000 | 16457 ft | 436 kts | 51° |
| 2026-05-07 18:12 | -27.32465 | 153.63804 | 16922 ft | 440 kts | 51° |
| 2026-05-07 18:12 | -27.30706 | 153.66632 | 17389 ft | 444 kts | 51° |
| 2026-05-07 18:12 | -27.28928 | 153.69487 | 17832 ft | 448 kts | 50° |
| 2026-05-07 18:13 | -27.27133 | 153.72371 | 18274 ft | 452 kts | 50° |
| 2026-05-07 18:13 | -27.25324 | 153.75278 | 18644 ft | 456 kts | 50° |
| 2026-05-07 18:13 | -27.23495 | 153.78211 | 18985 ft | 460 kts | 50° |
| 2026-05-07 18:13 | -27.21647 | 153.81169 | 19329 ft | 464 kts | 49° |
| 2026-05-07 18:14 | -27.19786 | 153.84150 | 19668 ft | 469 kts | 50° |
| 2026-05-07 18:14 | -27.18146 | 153.87303 | 19980 ft | 479 kts | 59° |
| 2026-05-07 18:14 | -27.16774 | 153.90744 | 20319 ft | 485 kts | 61° |
| 2026-05-07 18:14 | -27.15408 | 153.94226 | 20633 ft | 489 kts | 61° |
| 2026-05-07 18:15 | -27.14031 | 153.97732 | 20944 ft | 493 kts | 61° |
| 2026-05-07 18:15 | -27.12641 | 154.01261 | 21240 ft | 496 kts | 61° |
| 2026-05-07 18:15 | -27.11235 | 154.04813 | 21528 ft | 500 kts | 60° |
| 2026-05-07 18:15 | -27.09813 | 154.08393 | 21795 ft | 504 kts | 60° |
| 2026-05-07 18:16 | -27.08381 | 154.11995 | 22059 ft | 507 kts | 60° |
| 2026-05-07 18:16 | -27.06943 | 154.15616 | 22329 ft | 510 kts | 60° |
| 2026-05-07 18:16 | -27.05498 | 154.19264 | 22588 ft | 513 kts | 60° |
| 2026-05-07 18:16 | -27.04046 | 154.22933 | 22832 ft | 517 kts | 60° |
| 2026-05-07 18:17 | -27.02582 | 154.26627 | 23090 ft | 519 kts | 60° |
| 2026-05-07 18:17 | -27.01110 | 154.30336 | 23393 ft | 521 kts | 60° |
| 2026-05-07 18:17 | -26.99635 | 154.34039 | 23754 ft | 521 kts | 60° |
| 2026-05-07 18:17 | -26.98156 | 154.37745 | 24080 ft | 521 kts | 60° |
| 2026-05-07 18:18 | -26.96678 | 154.41445 | 24447 ft | 520 kts | 60° |
| 2026-05-07 18:18 | -26.95202 | 154.45141 | 24822 ft | 520 kts | 60° |
| 2026-05-07 18:18 | -26.93726 | 154.48836 | 25207 ft | 519 kts | 60° |
| 2026-05-07 18:18 | -26.92254 | 154.52522 | 25577 ft | 519 kts | 60° |
| 2026-05-07 18:19 | -26.90781 | 154.56205 | 25966 ft | 518 kts | 59° |
| 2026-05-07 18:19 | -26.89300 | 154.59894 | 26364 ft | 517 kts | 59° |
| 2026-05-07 18:19 | -26.87825 | 154.63559 | 26756 ft | 517 kts | 59° |
| 2026-05-07 18:19 | -26.86366 | 154.67183 | 27167 ft | 516 kts | 59° |
| 2026-05-07 18:20 | -26.84892 | 154.70842 | 27560 ft | 515 kts | 59° |
| 2026-05-07 18:20 | -26.83422 | 154.74493 | 27992 ft | 514 kts | 59° |
| 2026-05-07 18:20 | -26.81952 | 154.78137 | 28404 ft | 514 kts | 59° |
| 2026-05-07 18:20 | -26.80478 | 154.81787 | 28818 ft | 514 kts | 59° |
| 2026-05-07 18:21 | -26.79007 | 154.85431 | 29219 ft | 514 kts | 59° |
| 2026-05-07 18:21 | -26.77537 | 154.89069 | 29628 ft | 513 kts | 59° |
| 2026-05-07 18:21 | -26.76064 | 154.92705 | 30041 ft | 513 kts | 59° |
| 2026-05-07 18:21 | -26.74593 | 154.96343 | 30397 ft | 513 kts | 59° |
| 2026-05-07 18:22 | -26.73121 | 154.99983 | 30722 ft | 514 kts | 59° |
| 2026-05-07 18:22 | -26.72143 | 155.02401 | 30950 ft | 514 kts | 59° |
| 2026-05-07 18:22 | -26.70168 | 155.07269 | 31378 ft | 515 kts | 59° |
| 2026-05-07 18:22 | -26.68684 | 155.10921 | 31692 ft | 516 kts | 59° |
| 2026-05-07 18:23 | -26.67199 | 155.14570 | 32000 ft | 517 kts | 59° |
| 2026-05-07 18:23 | -26.65711 | 155.18230 | 32274 ft | 518 kts | 59° |
| 2026-05-07 18:23 | -26.64219 | 155.21900 | 32598 ft | 518 kts | 59° |
| 2026-05-07 18:23 | -26.62725 | 155.25564 | 32916 ft | 519 kts | 59° |
| 2026-05-07 18:24 | -26.61226 | 155.29242 | 33234 ft | 520 kts | 58° |
| 2026-05-07 18:24 | -26.59727 | 155.32916 | 33555 ft | 521 kts | 58° |
| 2026-05-07 18:24 | -26.58219 | 155.36605 | 33868 ft | 522 kts | 58° |
| 2026-05-07 18:24 | -26.56712 | 155.40290 | 34151 ft | 523 kts | 58° |
| 2026-05-07 18:25 | -26.55197 | 155.43990 | 34418 ft | 523 kts | 58° |
| 2026-05-07 18:25 | -26.53687 | 155.47676 | 34701 ft | 522 kts | 58° |
| 2026-05-07 18:25 | -26.52176 | 155.51371 | 34965 ft | 522 kts | 58° |
| 2026-05-07 18:26 | -26.49138 | 155.58776 | 35070 ft | 530 kts | 58° |
| 2026-05-07 18:26 | -26.46007 | 155.66342 | 35060 ft | 541 kts | 58° |
| 2026-05-07 18:27 | -26.42852 | 155.74001 | 35066 ft | 544 kts | 58° |
| 2026-05-07 18:27 | -26.39863 | 155.81723 | 35068 ft | 547 kts | 61° |
| 2026-05-07 18:28 | -26.37021 | 155.89600 | 35062 ft | 548 kts | 62° |
| 2026-05-07 18:28 | -26.34160 | 155.97467 | 35063 ft | 547 kts | 61° |
| 2026-05-07 18:29 | -26.31227 | 156.05295 | 35069 ft | 547 kts | 60° |
| 2026-05-07 18:29 | -26.28256 | 156.13106 | 35075 ft | 547 kts | 60° |
| 2026-05-07 18:30 | -26.25295 | 156.20923 | 35051 ft | 548 kts | 60° |
| 2026-05-07 18:30 | -26.22348 | 156.28754 | 35055 ft | 548 kts | 61° |
| 2026-05-07 18:31 | -26.19394 | 156.36589 | 35058 ft | 549 kts | 60° |
| 2026-05-07 18:31 | -26.16423 | 156.44412 | 35062 ft | 549 kts | 60° |
| 2026-05-07 18:32 | -26.13953 | 156.50923 | 35065 ft | 549 kts | 60° |
| 2026-05-07 18:32 | -26.10980 | 156.58744 | 35069 ft | 549 kts | 60° |
| 2026-05-07 18:33 | -26.07994 | 156.66571 | 35045 ft | 550 kts | 60° |
| 2026-05-07 18:33 | -26.05012 | 156.74398 | 35056 ft | 550 kts | 60° |
| 2026-05-07 18:34 | -26.02026 | 156.82219 | 35065 ft | 550 kts | 60° |
| 2026-05-07 18:34 | -25.99028 | 156.90035 | 35063 ft | 549 kts | 60° |
| 2026-05-07 18:35 | -25.96024 | 156.97841 | 35067 ft | 549 kts | 60° |
| 2026-05-07 18:35 | -25.93015 | 157.05649 | 35069 ft | 549 kts | 60° |
| 2026-05-07 18:36 | -25.90014 | 157.13447 | 35071 ft | 549 kts | 60° |
| 2026-05-07 18:36 | -25.87007 | 157.21247 | 35074 ft | 549 kts | 60° |
| 2026-05-07 18:37 | -25.84015 | 157.28989 | 35072 ft | 549 kts | 60° |
| 2026-05-07 18:37 | -25.80999 | 157.36775 | 35075 ft | 549 kts | 60° |
| 2026-05-07 18:38 | -25.77984 | 157.44544 | 35075 ft | 549 kts | 60° |
| 2026-05-07 18:38 | -25.74954 | 157.52316 | 35072 ft | 549 kts | 60° |
| 2026-05-07 18:39 | -25.71927 | 157.60087 | 35065 ft | 549 kts | 60° |
| 2026-05-07 18:39 | -25.68898 | 157.67841 | 35048 ft | 549 kts | 60° |
| 2026-05-07 18:40 | -25.65862 | 157.75605 | 35061 ft | 548 kts | 60° |
| 2026-05-07 18:40 | -25.62830 | 157.83361 | 35070 ft | 548 kts | 60° |
| 2026-05-07 18:41 | -25.59790 | 157.91108 | 35076 ft | 548 kts | 60° |
| 2026-05-07 18:41 | -25.56741 | 157.98848 | 35077 ft | 549 kts | 60° |
| 2026-05-07 18:42 | -25.53685 | 158.06584 | 35078 ft | 549 kts | 60° |
| 2026-05-07 18:42 | -25.50626 | 158.14328 | 35077 ft | 549 kts | 60° |
| 2026-05-07 18:43 | -25.47564 | 158.22071 | 35055 ft | 549 kts | 60° |
| 2026-05-07 18:43 | -25.44504 | 158.29800 | 35071 ft | 549 kts | 60° |
| 2026-05-07 18:44 | -25.41438 | 158.37537 | 35072 ft | 549 kts | 60° |
| 2026-05-07 18:44 | -25.38371 | 158.45263 | 35078 ft | 549 kts | 60° |
| 2026-05-07 18:45 | -25.35290 | 158.52982 | 35079 ft | 549 kts | 60° |
| 2026-05-07 18:45 | -25.32208 | 158.60695 | 35084 ft | 549 kts | 60° |
| 2026-05-07 18:46 | -25.29123 | 158.68405 | 35087 ft | 549 kts | 60° |
| 2026-05-07 18:46 | -25.26053 | 158.76065 | 35063 ft | 548 kts | 60° |
| 2026-05-07 18:47 | -25.22971 | 158.83756 | 35093 ft | 548 kts | 60° |
| 2026-05-07 18:47 | -25.19878 | 158.91450 | 35098 ft | 548 kts | 60° |
| 2026-05-07 18:48 | -25.16780 | 158.99129 | 35094 ft | 548 kts | 60° |
| 2026-05-07 18:48 | -25.13683 | 159.06800 | 35096 ft | 547 kts | 60° |
| 2026-05-07 18:49 | -25.10574 | 159.14476 | 35093 ft | 547 kts | 60° |
| 2026-05-07 18:49 | -25.07468 | 159.22145 | 35087 ft | 547 kts | 60° |
| 2026-05-07 18:50 | -25.04362 | 159.29810 | 35069 ft | 547 kts | 60° |
| 2026-05-07 18:50 | -25.01255 | 159.37476 | 35074 ft | 548 kts | 60° |
| 2026-05-07 18:51 | -24.98135 | 159.45141 | 35083 ft | 547 kts | 60° |
| 2026-05-07 18:51 | -24.95005 | 159.52791 | 35093 ft | 547 kts | 60° |
| 2026-05-07 18:52 | -24.91879 | 159.60442 | 35091 ft | 548 kts | 60° |
| 2026-05-07 18:52 | -24.88770 | 159.68044 | 35093 ft | 548 kts | 60° |
| 2026-05-07 18:53 | -24.85640 | 159.75695 | 35095 ft | 548 kts | 60° |
| 2026-05-07 18:53 | -24.82500 | 159.83329 | 35071 ft | 548 kts | 60° |
| 2026-05-07 18:54 | -24.79351 | 159.90962 | 35085 ft | 548 kts | 60° |
| 2026-05-07 18:54 | -24.76207 | 159.98599 | 35090 ft | 548 kts | 60° |
| 2026-05-07 18:55 | -24.73053 | 160.06248 | 35095 ft | 549 kts | 60° |
| 2026-05-07 18:55 | -24.69905 | 160.13890 | 35094 ft | 549 kts | 60° |
| 2026-05-07 18:56 | -24.66743 | 160.21524 | 35096 ft | 548 kts | 60° |
| 2026-05-07 18:56 | -24.63568 | 160.29142 | 35090 ft | 548 kts | 60° |
| 2026-05-07 18:57 | -24.60402 | 160.36771 | 35078 ft | 548 kts | 60° |
| 2026-05-07 18:57 | -24.57229 | 160.44383 | 35094 ft | 548 kts | 60° |
| 2026-05-07 18:58 | -24.54038 | 160.51994 | 35104 ft | 548 kts | 60° |
| 2026-05-07 18:58 | -24.50852 | 160.59597 | 35091 ft | 548 kts | 60° |
| 2026-05-07 18:59 | -24.47685 | 160.67150 | 35089 ft | 548 kts | 60° |
| 2026-05-07 18:59 | -24.44491 | 160.74750 | 35095 ft | 548 kts | 60° |
| 2026-05-07 19:00 | -24.41292 | 160.82343 | 35089 ft | 548 kts | 60° |
| 2026-05-07 19:00 | -24.38089 | 160.89936 | 35081 ft | 548 kts | 61° |
| 2026-05-07 19:01 | -24.34884 | 160.97526 | 35093 ft | 548 kts | 60° |
| 2026-05-07 19:01 | -24.31678 | 161.05108 | 35095 ft | 548 kts | 60° |
| 2026-05-07 19:02 | -24.28464 | 161.12682 | 35097 ft | 548 kts | 60° |
| 2026-05-07 19:02 | -24.25251 | 161.20249 | 35095 ft | 548 kts | 60° |
| 2026-05-07 19:03 | -24.22032 | 161.27819 | 35092 ft | 548 kts | 61° |
| 2026-05-07 19:03 | -24.18808 | 161.35378 | 35088 ft | 548 kts | 60° |
| 2026-05-07 19:04 | -24.15578 | 161.42932 | 35076 ft | 547 kts | 61° |
| 2026-05-07 19:04 | -24.12354 | 161.50473 | 35089 ft | 547 kts | 61° |
| 2026-05-07 19:05 | -24.09126 | 161.58007 | 35095 ft | 547 kts | 61° |
| 2026-05-07 19:05 | -24.05893 | 161.65534 | 35094 ft | 546 kts | 61° |
| 2026-05-07 19:06 | -24.02663 | 161.73062 | 35094 ft | 546 kts | 61° |
| 2026-05-07 19:06 | -23.97839 | 161.84285 | 35093 ft | 546 kts | 61° |
| 2026-05-07 19:07 | -23.94591 | 161.91800 | 35092 ft | 546 kts | 61° |
| 2026-05-07 19:07 | -23.91347 | 161.99311 | 35073 ft | 546 kts | 61° |
| 2026-05-07 19:08 | -23.88103 | 162.06810 | 35084 ft | 545 kts | 61° |
| 2026-05-07 19:08 | -23.84852 | 162.14289 | 35090 ft | 545 kts | 61° |
| 2026-05-07 19:09 | -23.81601 | 162.21759 | 35089 ft | 544 kts | 61° |
| 2026-05-07 19:09 | -23.78361 | 162.29229 | 35090 ft | 544 kts | 61° |
| 2026-05-07 19:10 | -23.75116 | 162.36688 | 35087 ft | 544 kts | 61° |
| 2026-05-07 19:10 | -23.71864 | 162.44154 | 35082 ft | 544 kts | 61° |
| 2026-05-07 19:11 | -23.68605 | 162.51611 | 35083 ft | 544 kts | 61° |
| 2026-05-07 19:11 | -23.65338 | 162.59060 | 35082 ft | 545 kts | 61° |
| 2026-05-07 19:12 | -23.62073 | 162.66512 | 35079 ft | 544 kts | 61° |
| 2026-05-07 19:12 | -23.58810 | 162.73961 | 35083 ft | 544 kts | 61° |
| 2026-05-07 19:13 | -23.55535 | 162.81399 | 35085 ft | 544 kts | 61° |
| 2026-05-07 19:13 | -23.52272 | 162.88786 | 35088 ft | 545 kts | 61° |
| 2026-05-07 19:14 | -23.48993 | 162.96233 | 35086 ft | 545 kts | 61° |
| 2026-05-07 19:14 | -23.45709 | 163.03671 | 35087 ft | 545 kts | 61° |
| 2026-05-07 19:15 | -23.42431 | 163.11102 | 35078 ft | 544 kts | 62° |
| 2026-05-07 19:15 | -23.39157 | 163.18523 | 35084 ft | 543 kts | 61° |
| 2026-05-07 19:16 | -23.35877 | 163.25935 | 35085 ft | 543 kts | 61° |
| 2026-05-07 19:16 | -23.32595 | 163.33341 | 35084 ft | 543 kts | 62° |
| 2026-05-07 19:17 | -23.29302 | 163.40752 | 35085 ft | 543 kts | 62° |
| 2026-05-07 19:17 | -23.26012 | 163.48149 | 35086 ft | 543 kts | 62° |
| 2026-05-07 19:18 | -23.22714 | 163.55541 | 35089 ft | 543 kts | 62° |
| 2026-05-07 19:18 | -23.19444 | 163.62879 | 35075 ft | 543 kts | 62° |
| 2026-05-07 19:19 | -23.16146 | 163.70254 | 35084 ft | 542 kts | 62° |
| 2026-05-07 19:19 | -23.12848 | 163.77620 | 35086 ft | 542 kts | 62° |
| 2026-05-07 19:20 | -23.09551 | 163.84983 | 35091 ft | 542 kts | 62° |
| 2026-05-07 19:20 | -23.06252 | 163.92341 | 35093 ft | 542 kts | 62° |
| 2026-05-07 19:21 | -23.02945 | 163.99701 | 35092 ft | 542 kts | 62° |
| 2026-05-07 19:21 | -22.99631 | 164.07061 | 35094 ft | 543 kts | 62° |
| 2026-05-07 19:22 | -22.96312 | 164.14420 | 35101 ft | 543 kts | 62° |
| 2026-05-07 19:22 | -22.92988 | 164.21774 | 35090 ft | 543 kts | 62° |
| 2026-05-07 19:23 | -22.90227 | 164.27876 | 35093 ft | 542 kts | 62° |
| 2026-05-07 19:23 | -22.86895 | 164.35204 | 35097 ft | 542 kts | 62° |
| 2026-05-07 19:24 | -22.83012 | 164.43714 | 35098 ft | 541 kts | 62° |
| 2026-05-07 19:24 | -22.79673 | 164.51025 | 35096 ft | 541 kts | 62° |
| 2026-05-07 19:25 | -22.76868 | 164.57146 | 35093 ft | 541 kts | 62° |
| 2026-05-07 19:25 | -22.73516 | 164.64447 | 35092 ft | 541 kts | 62° |
| 2026-05-07 19:26 | -22.70189 | 164.71695 | 35095 ft | 541 kts | 62° |
| 2026-05-07 19:26 | -22.68514 | 164.75345 | 34901 ft | 541 kts | 62° |
| 2026-05-07 19:26 | -22.66835 | 164.78996 | 33926 ft | 546 kts | 62° |
| 2026-05-07 19:27 | -22.65133 | 164.82691 | 32955 ft | 548 kts | 62° |
| 2026-05-07 19:27 | -22.63443 | 164.86360 | 32167 ft | 544 kts | 62° |
| 2026-05-07 19:27 | -22.61751 | 164.90032 | 31220 ft | 544 kts | 62° |
| 2026-05-07 19:27 | -22.60064 | 164.93698 | 30291 ft | 544 kts | 62° |
| 2026-05-07 19:28 | -22.58383 | 164.97356 | 29194 ft | 542 kts | 62° |
| 2026-05-07 19:28 | -22.56704 | 165.01002 | 28040 ft | 541 kts | 62° |
| 2026-05-07 19:28 | -22.55032 | 165.04618 | 26759 ft | 533 kts | 62° |
| 2026-05-07 19:28 | -22.53376 | 165.08192 | 24890 ft | 530 kts | 62° |
| 2026-05-07 19:29 | -22.51733 | 165.11740 | 23086 ft | 524 kts | 62° |
| 2026-05-07 19:29 | -22.50130 | 165.15210 | 21832 ft | 505 kts | 63° |
| 2026-05-07 19:29 | -22.48579 | 165.18558 | 20914 ft | 492 kts | 63° |
| 2026-05-07 19:29 | -22.47062 | 165.21827 | 20125 ft | 484 kts | 63° |
| 2026-05-07 19:30 | -22.45551 | 165.25076 | 19185 ft | 482 kts | 63° |
| 2026-05-07 19:30 | -22.44053 | 165.28292 | 18343 ft | 477 kts | 63° |
| 2026-05-07 19:30 | -22.42564 | 165.31490 | 17398 ft | 468 kts | 63° |
| 2026-05-07 19:30 | -22.41133 | 165.34571 | 16359 ft | 452 kts | 63° |
| 2026-05-07 19:31 | -22.39733 | 165.37593 | 15510 ft | 449 kts | 64° |
| 2026-05-07 19:31 | -22.38338 | 165.40598 | 14721 ft | 445 kts | 64° |
| 2026-05-07 19:31 | -22.36954 | 165.43570 | 13971 ft | 442 kts | 63° |
| 2026-05-07 19:31 | -22.35602 | 165.46462 | 13368 ft | 433 kts | 64° |
| 2026-05-07 19:32 | -22.34235 | 165.49386 | 12662 ft | 428 kts | 63° |
| 2026-05-07 19:32 | -22.32933 | 165.52174 | 11801 ft | 415 kts | 63° |
| 2026-05-07 19:32 | -22.31660 | 165.54896 | 11133 ft | 394 kts | 62° |
| 2026-05-07 19:32 | -22.30463 | 165.57425 | 10857 ft | 363 kts | 60° |
| 2026-05-07 19:33 | -22.28843 | 165.59487 | 10632 ft | 369 kts | 36° |
| 2026-05-07 19:33 | -22.26659 | 165.60972 | 10395 ft | 364 kts | 33° |
| 2026-05-07 19:33 | -22.24639 | 165.62505 | 10107 ft | 346 kts | 36° |
| 2026-05-07 19:33 | -22.22756 | 165.63985 | 9739 ft | 326 kts | 36° |
| 2026-05-07 19:34 | -22.20938 | 165.65416 | 9427 ft | 319 kts | 36° |
| 2026-05-07 19:34 | -22.19160 | 165.66806 | 9121 ft | 312 kts | 36° |
| 2026-05-07 19:34 | -22.17418 | 165.68164 | 8817 ft | 307 kts | 36° |
| 2026-05-07 19:34 | -22.15696 | 165.69498 | 8518 ft | 301 kts | 36° |
| 2026-05-07 19:35 | -22.14002 | 165.70798 | 8227 ft | 297 kts | 36° |
| 2026-05-07 19:35 | -22.12326 | 165.72068 | 7926 ft | 292 kts | 36° |
| 2026-05-07 19:35 | -22.10672 | 165.73316 | 7643 ft | 288 kts | 36° |
| 2026-05-07 19:35 | -22.09040 | 165.74542 | 7357 ft | 284 kts | 36° |
| 2026-05-07 19:36 | -22.07426 | 165.75752 | 7074 ft | 281 kts | 36° |
| 2026-05-07 19:36 | -22.05827 | 165.76945 | 6787 ft | 278 kts | 36° |
| 2026-05-07 19:36 | -22.04245 | 165.78121 | 6512 ft | 275 kts | 36° |
| 2026-05-07 19:36 | -22.02676 | 165.79282 | 6212 ft | 272 kts | 36° |
| 2026-05-07 19:37 | -22.01121 | 165.80428 | 5911 ft | 270 kts | 36° |
| 2026-05-07 19:37 | -21.99575 | 165.81567 | 5619 ft | 268 kts | 36° |
| 2026-05-07 19:37 | -21.98054 | 165.82690 | 5368 ft | 260 kts | 36° |
| 2026-05-07 19:37 | -21.96608 | 165.83770 | 5135 ft | 245 kts | 39° |
| 2026-05-07 19:38 | -21.95513 | 165.85092 | 4948 ft | 232 kts | 56° |
| 2026-05-07 19:38 | -21.94629 | 165.86515 | 4776 ft | 225 kts | 57° |
| 2026-05-07 19:38 | -21.93790 | 165.87914 | 4601 ft | 220 kts | 57° |
| 2026-05-07 19:38 | -21.92966 | 165.89294 | 4432 ft | 219 kts | 57° |
| 2026-05-07 19:39 | -21.92145 | 165.90672 | 4268 ft | 218 kts | 57° |
| 2026-05-07 19:39 | -21.91324 | 165.92048 | 4122 ft | 218 kts | 57° |
| 2026-05-07 19:39 | -21.90553 | 165.93452 | 3983 ft | 218 kts | 69° |
| 2026-05-07 19:39 | -21.90215 | 165.95039 | 3870 ft | 218 kts | 81° |
| 2026-05-07 19:40 | -21.90019 | 165.96638 | 3755 ft | 218 kts | 82° |
| 2026-05-07 19:40 | -21.89838 | 165.98255 | 3631 ft | 218 kts | 82° |
| 2026-05-07 19:40 | -21.89755 | 165.99865 | 3501 ft | 214 kts | 97° |
| 2026-05-07 19:40 | -21.90201 | 166.01341 | 3377 ft | 204 kts | 119° |
| 2026-05-07 19:41 | -21.90931 | 166.02628 | 3304 ft | 200 kts | 120° |
| 2026-05-07 19:41 | -21.91647 | 166.03900 | 3198 ft | 198 kts | 120° |
| 2026-05-07 19:41 | -21.92363 | 166.05169 | 3031 ft | 198 kts | 120° |
| 2026-05-07 19:41 | -21.93075 | 166.06430 | 2802 ft | 197 kts | 120° |
| 2026-05-07 19:42 | -21.93785 | 166.07689 | 2561 ft | 197 kts | 120° |
| 2026-05-07 19:42 | -21.94495 | 166.08948 | 2303 ft | 197 kts | 120° |
| 2026-05-07 19:42 | -21.95204 | 166.10204 | 2046 ft | 194 kts | 120° |
| 2026-05-07 19:42 | -21.95895 | 166.11430 | 1796 ft | 187 kts | 120° |
| 2026-05-07 19:43 | -21.96545 | 166.12582 | 1555 ft | 174 kts | 120° |
| 2026-05-07 19:43 | -21.97141 | 166.13639 | 1358 ft | 156 kts | 120° |
| 2026-05-07 19:43 | -21.97686 | 166.14606 | 1174 ft | 148 kts | 121° |
| 2026-05-07 19:43 | -21.98216 | 166.15548 | 965 ft | 146 kts | 120° |
| 2026-05-07 19:44 | -21.98739 | 166.16476 | 765 ft | 144 kts | 120° |
| 2026-05-07 19:44 | -21.99258 | 166.17396 | 581 ft | 143 kts | 120° |
| 2026-05-07 19:44 | -21.99773 | 166.18313 | 369 ft | 143 kts | 120° |
| 2026-05-07 19:44 | -22.00288 | 166.19226 | 177 ft | 142 kts | 120° |
| 2026-05-07 19:45 | -22.00799 | 166.20140 | -12 ft | 142 kts | 119° |
| 2026-05-07 19:45 | -22.01253 | 166.20950 | -34 ft | 103 kts | 121° |
| 2026-05-07 19:45 | -22.01472 | 166.21339 | -34 ft | 28 kts | 121° |
| 2026-05-07 19:45 | -22.01538 | 166.21457 | -35 ft | 18 kts | 121° |
| 2026-05-07 19:46 | -22.01606 | 166.21575 | -27 ft | 19 kts | 122° |
| 2026-05-07 19:46 | -22.01583 | 166.21650 | -30 ft | 8 kts | 30° |
| 2026-05-07 19:46 | -22.01571 | 166.21657 | -30 ft | 0 kts | 31° |
| 2026-05-07 19:47 | -22.01558 | 166.21666 | -31 ft | 4 kts | 31° |
| 2026-05-07 19:47 | -22.01523 | 166.21671 | -28 ft | 6 kts | 332° |
| 2026-05-07 19:47 | -22.01487 | 166.21624 | -29 ft | 9 kts | 323° |
| 2026-05-07 19:47 | -22.01436 | 166.21645 | -29 ft | 5 kts | 27° |
| 2026-05-07 19:48 | -22.01419 | 166.21654 | -27 ft | 1 kts | 27° |
| 2026-05-07 19:48 | -22.01412 | 166.21658 | -28 ft | 1 kts | 28° |
| 2026-05-07 19:48 | -22.01409 | 166.21660 | -30 ft | 0 kts | 28° |